Hlavní strana
METAR-TAF:

METAR-TAF

Letiště :

Dothan, Alabama, Spojené státy americké

zeměpisná šířka: 31-19-17N, zeměpisná délka: 085-26-59W, výška: 122 m

Aktuální stav počasí

Zpráva byla vytvořena před 15 minutami, v 10:53 UTC
Východojihovýchodní vítr 3 kt
Teplota 22°C
Vlhkost vzduchu 83%
Tlak 1022 hPa
Viditelnost: 16.1 km
Jasno

METAR: KDHN 241053Z 11003KT 10SM CLR 22/19 A3019 RMK AO2 SLP217 T02220194

Čas: 06:08 (11:08 UTC)

Předpověď počasí

Zpráva byla vytvořena před 5 hodinami a 46 minutami, v 05:22 UTC
Předpověď platná od 24 v 06 UTC do 25 v 06 UTC
vítr z různých směrů 6 kt
Viditelnost: 10 km
Jasno

TAF: KDHN 240522Z 2406/2506 VRB06KT P6SM SKC

Stav a předpovědi počasí z více než 4 000 letišť (zprávy METAR a TAF).

Červené a žluté tečky na mapě představují dostupné meteorologické stanice.

Když kurzor umístíte na tečku, zobrazí se název stanice.

Pak kliknutím zobrazíte stav a předpověď počasí.

Chcete-li změnit mapu, kliknutím na zelené tlačítko se znaménkem +mapu přiblížíte, kliknutím na zelené tlačítko se znaménkem – mapu oddálíte a kliknutím na zelené šipky přejdete na sousední mapy.


METAR-TAF: